Time;durP1;ratioP1;P1;durP2;ratioP2;P2;SDS_P1;SDS_P2;PMS_P1;PMS_P2;Temp;Humidity;BMP_temperature;BMP_pressure;BME280_temperature;BME280_humidity;BME280_pressure;Samples;Min_cycle;Max_cycle;Signal;HPM_P1;HPM_P2
2024/03/28 00:01:47;;;;;;;;;0.50;0.50;;;;;;;;5112209;28;9588;-68
2024/03/28 00:04:12;;;;;;;;;0.00;0.00;;;;;;;;5112043;28;8819;-68
2024/03/28 00:06:37;;;;;;;;;0.00;0.00;;;;;;;;5112268;28;8765;-68
2024/03/28 00:09:03;;;;;;;;;0.00;0.00;;;;;;;;5112097;28;8770;-68
2024/03/28 00:11:28;;;;;;;;;1.00;1.00;;;;;;;;5112027;28;8873;-68
2024/03/28 00:13:53;;;;;;;;;2.00;1.00;;;;;;;;5111854;28;8801;-68
2024/03/28 00:16:19;;;;;;;;;0.00;0.00;;;;;;;;5111185;28;8804;-67
2024/03/28 00:18:44;;;;;;;;;0.50;0.00;;;;;;;;5110478;28;8813;-68
2024/03/28 00:21:10;;;;;;;;;0.00;0.00;;;;;;;;5110702;28;9531;-67
2024/03/28 00:23:35;;;;;;;;;0.00;0.00;;;;;;;;5110080;28;8863;-67
2024/03/28 00:26:00;;;;;;;;;0.75;0.00;;;;;;;;5111831;28;8894;-67
2024/03/28 00:28:26;;;;;;;;;0.00;0.00;;;;;;;;5111773;28;8873;-67
2024/03/28 00:30:52;;;;;;;;;0.00;0.00;;;;;;;;5111657;28;8853;-67
2024/03/28 00:33:17;;;;;;;;;0.00;0.00;;;;;;;;5111555;28;8793;-67
2024/03/28 00:35:43;;;;;;;;;0.00;0.00;;;;;;;;5111553;28;8792;-67
2024/03/28 00:38:09;;;;;;;;;0.00;0.00;;;;;;;;5111482;28;9517;-67
2024/03/28 00:40:34;;;;;;;;;0.50;0.50;;;;;;;;5111768;28;8804;-67
2024/03/28 00:42:59;;;;;;;;;0.00;0.00;;;;;;;;5111432;28;8829;-67
2024/03/28 00:45:25;;;;;;;;;0.00;0.00;;;;;;;;5111631;28;8774;-67
2024/03/28 00:47:50;;;;;;;;;0.75;0.75;;;;;;;;5111505;28;8777;-67
2024/03/28 00:50:15;;;;;;;;;0.00;0.00;;;;;;;;5111706;28;8770;-67
2024/03/28 00:52:40;;;;;;;;;0.00;0.00;;;;;;;;5111464;28;8812;-67
2024/03/28 00:55:06;;;;;;;;;0.00;0.00;;;;;;;;5111654;28;8786;-67
2024/03/28 00:57:31;;;;;;;;;1.00;0.00;;;;;;;;5111476;28;8805;-67
2024/03/28 00:59:56;;;;;;;;;0.00;0.00;;;;;;;;5111342;28;8761;-67
2024/03/28 01:02:22;;;;;;;;;0.75;0.00;;;;;;;;5111365;28;8923;-68
2024/03/28 01:04:49;;;;;;;;;1.00;0.00;;;;;;;;5111306;28;8781;-67
2024/03/28 01:07:14;;;;;;;;;0.00;0.00;;;;;;;;5111068;28;8888;-67
2024/03/28 01:09:39;;;;;;;;;0.00;0.00;;;;;;;;5111117;28;11490;-67
2024/03/28 01:12:05;;;;;;;;;1.50;0.00;;;;;;;;5110883;28;8789;-67
2024/03/28 01:14:30;;;;;;;;;0.25;0.00;;;;;;;;5111070;28;8781;-67
2024/03/28 01:16:56;;;;;;;;;0.00;0.00;;;;;;;;5111309;28;8797;-67
2024/03/28 01:19:21;;;;;;;;;0.00;0.00;;;;;;;;5111012;28;8777;-67
2024/03/28 01:21:46;;;;;;;;;2.00;0.00;;;;;;;;5110912;28;8762;-67
2024/03/28 01:24:11;;;;;;;;;1.25;0.00;;;;;;;;5110884;28;8833;-67
2024/03/28 01:26:37;;;;;;;;;0.00;0.00;;;;;;;;5110965;28;8828;-67
2024/03/28 01:29:02;;;;;;;;;0.00;0.00;;;;;;;;5110901;28;8826;-67
2024/03/28 01:31:27;;;;;;;;;0.00;0.00;;;;;;;;5111121;28;8885;-67
2024/03/28 01:33:52;;;;;;;;;0.00;0.00;;;;;;;;5111077;28;8832;-67
2024/03/28 01:36:18;;;;;;;;;0.00;0.00;;;;;;;;5113789;28;8816;-67
2024/03/28 01:38:43;;;;;;;;;0.50;0.00;;;;;;;;5114962;27;9530;-66
2024/03/28 01:41:08;;;;;;;;;0.00;0.00;;;;;;;;5115118;28;8858;-66
2024/03/28 01:43:38;;;;;;;;;0.00;0.00;;;;;;;;5114772;28;8816;-66
2024/03/28 01:46:03;;;;;;;;;0.00;0.00;;;;;;;;5114876;28;8794;-66
2024/03/28 01:48:28;;;;;;;;;0.00;0.00;;;;;;;;5114433;28;11463;-66
2024/03/28 01:50:54;;;;;;;;;0.00;0.00;;;;;;;;5114743;28;8785;-66
2024/03/28 01:53:20;;;;;;;;;0.50;0.00;;;;;;;;5114692;27;8777;-66
2024/03/28 01:55:45;;;;;;;;;0.00;0.00;;;;;;;;5113327;28;8927;-66
2024/03/28 01:58:11;;;;;;;;;0.25;0.00;;;;;;;;5114594;28;8773;-66
2024/03/28 02:00:36;;;;;;;;;0.00;0.00;;;;;;;;5114522;28;8794;-66
2024/03/28 02:03:02;;;;;;;;;0.00;0.00;;;;;;;;5114221;28;9575;-66
2024/03/28 02:05:27;;;;;;;;;0.00;0.00;;;;;;;;5114417;28;8757;-66
2024/03/28 02:07:52;;;;;;;;;0.00;0.00;;;;;;;;5114267;28;8874;-66
2024/03/28 02:10:18;;;;;;;;;0.00;0.00;;;;;;;;5114471;28;8781;-66
2024/03/28 02:12:44;;;;;;;;;0.75;0.00;;;;;;;;5114211;28;8831;-66
2024/03/28 02:15:09;;;;;;;;;1.00;0.00;;;;;;;;5112940;28;8794;-66
2024/03/28 02:17:44;;;;;;;;;0.00;0.00;;;;;;;;5114409;28;11505;-66
2024/03/28 02:20:09;;;;;;;;;0.00;0.00;;;;;;;;5114329;28;8845;-66
2024/03/28 02:22:35;;;;;;;;;0.00;0.00;;;;;;;;5113895;28;11443;-66
2024/03/28 02:25:00;;;;;;;;;0.00;0.00;;;;;;;;5114109;28;8773;-66
2024/03/28 02:27:25;;;;;;;;;0.00;0.00;;;;;;;;5113926;28;8923;-66
2024/03/28 02:29:51;;;;;;;;;0.00;0.00;;;;;;;;5113789;28;8798;-66
2024/03/28 02:32:16;;;;;;;;;0.00;0.00;;;;;;;;5114104;28;9683;-66
2024/03/28 02:34:41;;;;;;;;;0.00;0.00;;;;;;;;5113933;28;8762;-66
2024/03/28 02:37:06;;;;;;;;;1.50;0.00;;;;;;;;5113695;28;8802;-66
2024/03/28 02:39:32;;;;;;;;;0.00;0.00;;;;;;;;5112504;28;8920;-66
2024/03/28 02:41:57;;;;;;;;;0.00;0.00;;;;;;;;5113749;28;9141;-66
2024/03/28 02:44:22;;;;;;;;;0.00;0.00;;;;;;;;5113928;28;8825;-66
2024/03/28 02:46:48;;;;;;;;;0.75;0.00;;;;;;;;5113070;28;8900;-66
2024/03/28 02:49:13;;;;;;;;;0.00;0.00;;;;;;;;5113634;28;8789;-66
2024/03/28 02:51:39;;;;;;;;;0.00;0.00;;;;;;;;5113596;28;8820;-66
2024/03/28 02:54:04;;;;;;;;;0.00;0.00;;;;;;;;5113488;28;8916;-66
2024/03/28 02:56:29;;;;;;;;;0.00;0.00;;;;;;;;5113462;28;8773;-66
2024/03/28 02:58:55;;;;;;;;;0.00;0.00;;;;;;;;5113416;28;8816;-66
2024/03/28 03:01:20;;;;;;;;;0.00;0.00;;;;;;;;5113238;28;8804;-66
2024/03/28 03:03:45;;;;;;;;;0.00;0.00;;;;;;;;5113187;28;8817;-66
2024/03/28 03:06:10;;;;;;;;;0.00;0.00;;;;;;;;5112019;28;8808;-66
2024/03/28 03:08:37;;;;;;;;;0.00;0.00;;;;;;;;5113155;28;8777;-66
2024/03/28 03:11:02;;;;;;;;;0.00;0.00;;;;;;;;5112096;28;8797;-66
2024/03/28 03:13:27;;;;;;;;;0.00;0.00;;;;;;;;5112897;28;12345;-66
2024/03/28 03:15:54;;;;;;;;;0.00;0.00;;;;;;;;5113204;28;9014;-66
2024/03/28 03:18:25;;;;;;;;;2.00;0.00;;;;;;;;5113493;28;8800;-66
2024/03/28 03:20:58;;;;;;;;;0.00;0.00;;;;;;;;5113044;28;11389;-66
2024/03/28 03:23:23;;;;;;;;;2.00;0.00;;;;;;;;5112804;28;11474;-66
2024/03/28 03:25:59;;;;;;;;;1.00;0.00;;;;;;;;5112983;28;11412;-66
2024/03/28 03:36:37;;;;;;;;;0.00;0.00;;;;;;;;5092152;28;12064;-66
2024/03/28 03:39:03;;;;;;;;;2.00;0.00;;;;;;;;5092243;28;11402;-66
2024/03/28 03:41:28;;;;;;;;;0.00;0.00;;;;;;;;5092433;28;8866;-66
2024/03/28 03:43:53;;;;;;;;;0.50;0.00;;;;;;;;5092080;28;8813;-66
2024/03/28 03:46:19;;;;;;;;;0.00;0.00;;;;;;;;5092168;28;8796;-66
2024/03/28 03:48:44;;;;;;;;;0.00;0.00;;;;;;;;5092015;28;8766;-66
2024/03/28 03:51:09;;;;;;;;;0.00;0.00;;;;;;;;5091830;28;8875;-66
2024/03/28 03:53:35;;;;;;;;;0.00;0.00;;;;;;;;5092103;28;8888;-67
2024/03/28 03:56:00;;;;;;;;;0.00;0.00;;;;;;;;5109512;28;8809;-67
2024/03/28 03:58:25;;;;;;;;;0.00;0.00;;;;;;;;5111519;28;8793;-66
2024/03/28 04:00:50;;;;;;;;;1.00;0.00;;;;;;;;5112331;28;8773;-67
2024/03/28 04:03:16;;;;;;;;;0.00;0.00;;;;;;;;5112102;28;8882;-67
2024/03/28 04:05:41;;;;;;;;;0.00;0.00;;;;;;;;5112041;28;8762;-67
2024/03/28 04:08:07;;;;;;;;;0.00;0.00;;;;;;;;5112310;27;8773;-67
2024/03/28 04:10:32;;;;;;;;;0.00;0.00;;;;;;;;5110770;28;8797;-67
2024/03/28 04:12:57;;;;;;;;;0.00;0.00;;;;;;;;5111919;28;8885;-67
2024/03/28 04:15:23;;;;;;;;;0.00;0.00;;;;;;;;5112121;28;9499;-67
2024/03/28 04:17:48;;;;;;;;;0.00;0.00;;;;;;;;5112377;28;8782;-67
2024/03/28 04:20:13;;;;;;;;;0.00;0.00;;;;;;;;5111951;28;8800;-67
2024/03/28 04:22:39;;;;;;;;;0.00;0.00;;;;;;;;5111549;28;8901;-67
2024/03/28 04:25:04;;;;;;;;;0.00;0.00;;;;;;;;5111869;28;8777;-67
2024/03/28 04:27:29;;;;;;;;;0.00;0.00;;;;;;;;5111773;28;8854;-67
2024/03/28 04:29:55;;;;;;;;;0.00;0.00;;;;;;;;5111751;28;8884;-68
2024/03/28 04:32:21;;;;;;;;;1.00;0.00;;;;;;;;5111684;28;8846;-67
2024/03/28 04:34:46;;;;;;;;;0.00;0.00;;;;;;;;5111688;28;8927;-67
2024/03/28 04:37:11;;;;;;;;;1.00;0.00;;;;;;;;5111397;28;8835;-67
2024/03/28 04:39:37;;;;;;;;;0.00;0.00;;;;;;;;5111702;28;8758;-67
2024/03/28 04:42:02;;;;;;;;;0.00;0.00;;;;;;;;5111495;28;8800;-67
2024/03/28 04:44:27;;;;;;;;;0.00;0.00;;;;;;;;5111467;28;8801;-66
2024/03/28 04:46:52;;;;;;;;;0.00;0.00;;;;;;;;5111359;28;8773;-67
2024/03/28 04:49:18;;;;;;;;;0.00;0.00;;;;;;;;5111400;28;8773;-67
2024/03/28 04:51:44;;;;;;;;;0.25;0.00;;;;;;;;5111274;28;8969;-68
2024/03/28 04:54:09;;;;;;;;;1.00;0.00;;;;;;;;5111514;28;8809;-68
2024/03/28 04:56:40;;;;;;;;;0.00;0.00;;;;;;;;5111252;28;8765;-67
2024/03/28 04:59:05;;;;;;;;;0.00;0.00;;;;;;;;5111328;28;9515;-67
2024/03/28 05:01:31;;;;;;;;;0.00;0.00;;;;;;;;5111139;28;11436;-67
2024/03/28 05:03:56;;;;;;;;;0.00;0.00;;;;;;;;5111151;28;8818;-68
2024/03/28 05:06:21;;;;;;;;;0.00;0.00;;;;;;;;5111093;28;8781;-67
2024/03/28 05:08:47;;;;;;;;;0.00;0.00;;;;;;;;5110847;28;9563;-67
2024/03/28 05:11:12;;;;;;;;;0.00;0.00;;;;;;;;5111118;28;8794;-67
2024/03/28 05:13:38;;;;;;;;;0.00;0.00;;;;;;;;5110958;28;8976;-67
2024/03/28 05:16:04;;;;;;;;;1.00;0.00;;;;;;;;5111137;28;8858;-68
2024/03/28 05:18:30;;;;;;;;;1.00;0.00;;;;;;;;5111623;28;8782;-67
2024/03/28 05:20:55;;;;;;;;;0.00;0.00;;;;;;;;5110844;28;11444;-68
2024/03/28 05:23:20;;;;;;;;;1.00;0.00;;;;;;;;5110957;28;8837;-67
2024/03/28 05:25:45;;;;;;;;;0.00;0.00;;;;;;;;5111017;28;8859;-67
2024/03/28 05:28:11;;;;;;;;;0.00;0.00;;;;;;;;5110849;28;8788;-68
2024/03/28 05:30:37;;;;;;;;;0.00;0.00;;;;;;;;5110982;28;8785;-68
2024/03/28 05:33:02;;;;;;;;;0.00;0.00;;;;;;;;5110988;28;8801;-67
2024/03/28 05:35:27;;;;;;;;;0.25;0.25;;;;;;;;5110762;28;8777;-67
2024/03/28 05:37:52;;;;;;;;;2.00;1.00;;;;;;;;5110759;28;8820;-68
2024/03/28 05:40:18;;;;;;;;;3.00;0.00;;;;;;;;5110867;28;8781;-68
2024/03/28 05:42:43;;;;;;;;;0.75;0.00;;;;;;;;5110686;28;8817;-67
2024/03/28 05:45:11;;;;;;;;;1.25;1.00;;;;;;;;5110734;28;8761;-68
2024/03/28 05:47:36;;;;;;;;;2.00;1.00;;;;;;;;5110609;28;8761;-68
2024/03/28 05:50:01;;;;;;;;;10.25;6.75;;;;;;;;5110499;28;12277;-66
2024/03/28 05:52:26;;;;;;;;;7.25;6.50;;;;;;;;5110666;28;8854;-68
2024/03/28 05:54:52;;;;;;;;;2.25;2.25;;;;;;;;5109265;28;8825;-68
2024/03/28 05:57:17;;;;;;;;;1.25;1.25;;;;;;;;5110537;28;8784;-68
2024/03/28 05:59:42;;;;;;;;;2.00;1.00;;;;;;;;5109440;28;8813;-67
2024/03/28 06:02:07;;;;;;;;;3.50;2.25;;;;;;;;5110529;28;8832;-67
2024/03/28 06:04:33;;;;;;;;;2.00;2.00;;;;;;;;5110369;28;8944;-67
2024/03/28 06:06:58;;;;;;;;;2.00;1.00;;;;;;;;5110500;28;8842;-68
2024/03/28 06:09:23;;;;;;;;;1.75;1.75;;;;;;;;5110566;28;8778;-67
2024/03/28 06:11:48;;;;;;;;;2.00;2.00;;;;;;;;5110517;28;8892;-66
2024/03/28 06:14:14;;;;;;;;;1.25;1.00;;;;;;;;5110436;28;8813;-67
2024/03/28 06:16:39;;;;;;;;;2.25;1.00;;;;;;;;5110758;28;8773;-67
2024/03/28 06:19:04;;;;;;;;;2.50;1.25;;;;;;;;5110267;28;8770;-68
2024/03/28 06:21:30;;;;;;;;;1.50;1.50;;;;;;;;5111565;28;8777;-67
2024/03/28 06:23:56;;;;;;;;;2.00;2.00;;;;;;;;5094355;28;8820;-67
2024/03/28 06:26:22;;;;;;;;;2.00;1.25;;;;;;;;5093569;28;8788;-66
2024/03/28 06:28:48;;;;;;;;;2.00;2.00;;;;;;;;5093180;28;8780;-67
2024/03/28 06:31:16;;;;;;;;;5.50;5.50;;;;;;;;5093057;28;11455;-68
2024/03/28 06:33:41;;;;;;;;;1.75;1.75;;;;;;;;5093202;28;8800;-66
2024/03/28 06:36:07;;;;;;;;;1.00;1.00;;;;;;;;5093630;28;11421;-66
2024/03/28 06:38:32;;;;;;;;;1.00;1.00;;;;;;;;5092776;28;8804;-66
2024/03/28 06:41:01;;;;;;;;;2.00;2.00;;;;;;;;5092829;28;8867;-66
2024/03/28 06:43:26;;;;;;;;;2.50;2.00;;;;;;;;5092866;28;8799;-67
2024/03/28 06:45:51;;;;;;;;;2.50;2.00;;;;;;;;5092711;28;11413;-67
2024/03/28 06:48:17;;;;;;;;;1.00;1.00;;;;;;;;5092693;28;8918;-67
2024/03/28 06:50:42;;;;;;;;;1.00;1.00;;;;;;;;5093164;28;8887;-67
2024/03/28 06:53:08;;;;;;;;;2.75;1.25;;;;;;;;5092783;28;8873;-67
2024/03/28 06:55:33;;;;;;;;;1.00;1.00;;;;;;;;5094541;28;8765;-67
2024/03/28 06:57:58;;;;;;;;;1.25;1.25;;;;;;;;5091310;28;8826;-67
2024/03/28 07:00:24;;;;;;;;;1.25;1.00;;;;;;;;5092589;28;8861;-66
2024/03/28 07:02:49;;;;;;;;;0.00;0.00;;;;;;;;5091035;28;8828;-67
2024/03/28 07:05:14;;;;;;;;;0.00;0.00;;;;;;;;5092602;28;8776;-67
2024/03/28 07:07:40;;;;;;;;;1.50;0.75;;;;;;;;5092431;28;8795;-66
2024/03/28 07:10:08;;;;;;;;;0.50;0.50;;;;;;;;5092424;28;8788;-67
2024/03/28 07:12:35;;;;;;;;;0.00;0.00;;;;;;;;5092421;28;8865;-64
2024/03/28 07:15:01;;;;;;;;;1.50;0.00;;;;;;;;5085985;28;11447;-69
2024/03/28 07:17:26;;;;;;;;;1.00;1.00;;;;;;;;5080697;28;11477;-67
2024/03/28 07:19:51;;;;;;;;;0.75;0.00;;;;;;;;5072456;28;8885;-69
2024/03/28 07:22:18;;;;;;;;;1.75;1.00;;;;;;;;5072255;28;8791;-69
2024/03/28 07:24:43;;;;;;;;;0.00;0.00;;;;;;;;5088275;28;8815;-68
2024/03/28 07:27:09;;;;;;;;;2.25;1.00;;;;;;;;5112774;28;11406;-67
2024/03/28 07:29:34;;;;;;;;;2.00;1.00;;;;;;;;5112881;27;8769;-69
2024/03/28 07:31:59;;;;;;;;;1.00;1.00;;;;;;;;5112926;28;8769;-68
2024/03/28 07:34:25;;;;;;;;;1.25;1.00;;;;;;;;5112732;28;8785;-70
2024/03/28 07:36:50;;;;;;;;;5.00;5.00;;;;;;;;5109945;28;8803;-68
2024/03/28 07:39:15;;;;;;;;;1.00;1.00;;;;;;;;5112290;28;9480;-68
2024/03/28 07:41:41;;;;;;;;;3.25;1.00;;;;;;;;5110810;28;8863;-67
2024/03/28 07:44:06;;;;;;;;;4.75;2.00;;;;;;;;5112383;28;8805;-67
2024/03/28 07:46:32;;;;;;;;;2.00;1.00;;;;;;;;5112069;28;8789;-66
2024/03/28 07:48:57;;;;;;;;;3.00;2.00;;;;;;;;5094186;28;8836;-69
2024/03/28 07:51:23;;;;;;;;;3.50;1.50;;;;;;;;5091520;28;8871;-67
2024/03/28 07:53:48;;;;;;;;;1.00;1.00;;;;;;;;5091884;28;8809;-69
2024/03/28 07:56:13;;;;;;;;;4.75;1.00;;;;;;;;5112028;28;8770;-68
2024/03/28 07:58:39;;;;;;;;;2.00;2.00;;;;;;;;5112095;28;8875;-68
2024/03/28 08:01:07;;;;;;;;;2.50;2.00;;;;;;;;5111513;28;8907;-69
2024/03/28 08:03:34;;;;;;;;;2.75;2.00;;;;;;;;5110862;28;8820;-69
2024/03/28 08:06:00;;;;;;;;;2.00;2.00;;;;;;;;5111899;28;11405;-71
2024/03/28 08:08:25;;;;;;;;;2.00;2.00;;;;;;;;5111693;28;11564;-72
2024/03/28 08:10:51;;;;;;;;;3.00;1.00;;;;;;;;5111366;28;8808;-74
2024/03/28 08:13:16;;;;;;;;;3.00;1.00;;;;;;;;5111381;28;8800;-71
2024/03/28 08:15:41;;;;;;;;;1.75;1.50;;;;;;;;5110270;28;8781;-70
2024/03/28 08:18:07;;;;;;;;;2.75;2.00;;;;;;;;5111620;28;8812;-70
2024/03/28 08:20:32;;;;;;;;;1.00;1.00;;;;;;;;5111563;28;8824;-70
2024/03/28 08:22:57;;;;;;;;;1.50;1.00;;;;;;;;5110015;28;8844;-69
2024/03/28 08:25:23;;;;;;;;;4.25;3.00;;;;;;;;5111575;28;8932;-70
2024/03/28 08:27:49;;;;;;;;;5.00;2.00;;;;;;;;5111478;28;8770;-70
2024/03/28 08:30:15;;;;;;;;;4.00;1.25;;;;;;;;5111343;28;8785;-70
2024/03/28 08:32:40;;;;;;;;;3.00;2.25;;;;;;;;5111029;28;11446;-70
2024/03/28 08:35:06;;;;;;;;;5.50;2.25;;;;;;;;5110169;28;8889;-70
2024/03/28 08:37:31;;;;;;;;;4.00;2.75;;;;;;;;5109996;28;8827;-70
2024/03/28 08:39:56;;;;;;;;;3.00;1.00;;;;;;;;5089267;28;8784;-70
2024/03/28 08:42:21;;;;;;;;;3.00;2.00;;;;;;;;5077419;28;8887;-70
2024/03/28 08:44:47;;;;;;;;;3.75;1.00;;;;;;;;5070345;28;8770;-70
2024/03/28 08:47:14;;;;;;;;;3.00;1.75;;;;;;;;5069035;28;8818;-70
2024/03/28 08:49:39;;;;;;;;;3.00;1.00;;;;;;;;5069399;28;9410;-71
2024/03/28 08:52:04;;;;;;;;;5.00;1.50;;;;;;;;5083330;28;11477;-69
2024/03/28 08:54:30;;;;;;;;;1.00;1.00;;;;;;;;5096605;28;8821;-71
2024/03/28 08:56:55;;;;;;;;;1.00;1.00;;;;;;;;5109669;28;8801;-74
2024/03/28 08:59:20;;;;;;;;;4.25;2.50;;;;;;;;5111069;28;8778;-71
2024/03/28 09:01:46;;;;;;;;;4.00;2.25;;;;;;;;5108999;28;8825;-71
2024/03/28 09:04:17;;;;;;;;;3.00;2.00;;;;;;;;5110759;28;8801;-67
2024/03/28 09:06:43;;;;;;;;;4.00;2.25;;;;;;;;5110721;28;8793;-69
2024/03/28 09:09:08;;;;;;;;;2.25;2.00;;;;;;;;5110671;28;11428;-66
2024/03/28 09:11:36;;;;;;;;;6.25;2.00;;;;;;;;5110369;28;11410;-67
2024/03/28 09:14:03;;;;;;;;;3.25;2.00;;;;;;;;5110425;28;11480;-68
2024/03/28 09:16:32;;;;;;;;;4.00;3.00;;;;;;;;5110567;28;8777;-68
2024/03/28 09:19:00;;;;;;;;;4.25;3.00;;;;;;;;5110297;28;11511;-67
2024/03/28 09:21:25;;;;;;;;;1.75;1.75;;;;;;;;5109857;28;11539;-67
2024/03/28 09:23:51;;;;;;;;;2.75;2.50;;;;;;;;5110339;28;11566;-67
2024/03/28 09:26:19;;;;;;;;;2.50;2.00;;;;;;;;5110435;28;8781;-68
2024/03/28 09:28:44;;;;;;;;;4.75;2.00;;;;;;;;5110554;28;8900;-67
2024/03/28 09:31:10;;;;;;;;;4.25;2.50;;;;;;;;5109979;28;11557;-66
2024/03/28 09:33:35;;;;;;;;;4.00;3.00;;;;;;;;5110531;28;8781;-65
2024/03/28 09:36:00;;;;;;;;;4.75;3.00;;;;;;;;5110294;28;8774;-65
2024/03/28 09:38:26;;;;;;;;;3.00;2.75;;;;;;;;5110559;28;8781;-65
2024/03/28 09:40:52;;;;;;;;;4.75;3.00;;;;;;;;5110002;28;8785;-70
2024/03/28 09:43:18;;;;;;;;;4.00;2.00;;;;;;;;5110402;28;8809;-69
2024/03/28 09:45:43;;;;;;;;;3.50;3.50;;;;;;;;5110487;28;12145;-69
2024/03/28 09:48:09;;;;;;;;;3.50;3.00;;;;;;;;5106373;28;11458;-70
2024/03/28 09:50:36;;;;;;;;;5.25;3.50;;;;;;;;5109936;28;8786;-71
2024/03/28 09:53:04;;;;;;;;;6.00;3.50;;;;;;;;5109527;28;8797;-71
2024/03/28 09:55:29;;;;;;;;;5.50;4.00;;;;;;;;5111495;28;11389;-71
2024/03/28 09:57:55;;;;;;;;;9.50;3.25;;;;;;;;5102763;28;11436;-71
2024/03/28 10:00:20;;;;;;;;;8.00;4.00;;;;;;;;5087936;28;9796;-71
2024/03/28 10:03:14;;;;;;;;;5.75;2.50;;;;;;;;5085123;28;8903;-72
2024/03/28 10:05:40;;;;;;;;;2.00;1.00;;;;;;;;5030848;28;8898;-72
2024/03/28 10:08:05;;;;;;;;;7.50;4.25;;;;;;;;5044079;28;11372;-73
2024/03/28 10:10:32;;;;;;;;;4.50;3.00;;;;;;;;5050314;28;8887;-71
2024/03/28 10:13:04;;;;;;;;;6.00;2.50;;;;;;;;5049757;28;8849;-71
2024/03/28 10:15:31;;;;;;;;;3.75;3.00;;;;;;;;5033512;28;11397;-70
2024/03/28 10:17:58;;;;;;;;;3.50;2.75;;;;;;;;5050942;28;11480;-71
2024/03/28 10:20:24;;;;;;;;;6.25;2.25;;;;;;;;5049775;28;11391;-71
2024/03/28 10:22:52;;;;;;;;;4.25;3.75;;;;;;;;5049504;28;11414;-72
2024/03/28 10:25:23;;;;;;;;;5.25;3.00;;;;;;;;5036256;28;11396;-71
2024/03/28 10:27:49;;;;;;;;;3.75;2.75;;;;;;;;5049725;28;11443;-71
2024/03/28 10:30:21;;;;;;;;;2.25;1.25;;;;;;;;5047373;28;11382;-71
2024/03/28 10:32:47;;;;;;;;;5.75;3.00;;;;;;;;5048980;28;8817;-71
2024/03/28 10:35:12;;;;;;;;;12.50;3.75;;;;;;;;5049770;28;11391;-72
2024/03/28 10:37:37;;;;;;;;;7.75;4.00;;;;;;;;5051913;28;8798;-75
2024/03/28 10:40:03;;;;;;;;;6.00;5.00;;;;;;;;5033016;28;8834;-72
2024/03/28 10:42:29;;;;;;;;;5.50;5.00;;;;;;;;5070864;28;8822;-75
2024/03/28 10:44:59;;;;;;;;;4.00;3.00;;;;;;;;5090708;28;11206;-74
2024/03/28 10:47:25;;;;;;;;;4.50;3.00;;;;;;;;5090322;28;8808;-73
2024/03/28 10:49:57;;;;;;;;;10.25;5.25;;;;;;;;5092136;28;10879;-72
2024/03/28 10:52:31;;;;;;;;;9.50;5.50;;;;;;;;5084878;28;11218;-72
2024/03/28 10:55:02;;;;;;;;;8.75;5.50;;;;;;;;5092592;28;11501;-72
2024/03/28 10:57:28;;;;;;;;;3.50;3.50;;;;;;;;5091414;28;11201;-73
2024/03/28 10:59:54;;;;;;;;;6.50;6.00;;;;;;;;5092414;28;11085;-72
2024/03/28 11:02:20;;;;;;;;;5.00;5.00;;;;;;;;5092535;28;8807;-73
2024/03/28 11:04:46;;;;;;;;;7.25;5.25;;;;;;;;5091121;28;11205;-73
2024/03/28 11:07:11;;;;;;;;;5.00;4.75;;;;;;;;5089214;28;11397;-73
2024/03/28 11:09:38;;;;;;;;;4.00;3.00;;;;;;;;5091047;28;8828;-72
2024/03/28 11:12:05;;;;;;;;;5.25;4.00;;;;;;;;5088776;28;8803;-73
2024/03/28 11:14:30;;;;;;;;;5.00;5.00;;;;;;;;5083200;28;11512;-74
2024/03/28 11:17:05;;;;;;;;;8.00;5.25;;;;;;;;5085128;28;11285;-74
2024/03/28 11:19:30;;;;;;;;;7.50;5.00;;;;;;;;5105018;28;8800;-72
2024/03/28 11:21:57;;;;;;;;;4.00;4.00;;;;;;;;5112062;28;11031;-73
2024/03/28 11:24:28;;;;;;;;;6.00;4.75;;;;;;;;5095158;28;8827;-73
2024/03/28 11:26:54;;;;;;;;;10.25;7.00;;;;;;;;5089392;28;10965;-72
2024/03/28 11:29:25;;;;;;;;;5.50;4.50;;;;;;;;5091818;28;11402;-73
2024/03/28 11:31:57;;;;;;;;;5.00;1.50;;;;;;;;5073778;28;10210;-71
2024/03/28 11:34:29;;;;;;;;;6.75;1.00;;;;;;;;5039171;28;10800;-72
2024/03/28 11:36:57;;;;;;;;;5.25;4.00;;;;;;;;5068994;28;10841;-70
2024/03/28 11:39:23;;;;;;;;;3.75;1.00;;;;;;;;5071096;28;10861;-71
2024/03/28 11:41:48;;;;;;;;;3.75;1.00;;;;;;;;5071550;28;10795;-72
2024/03/28 11:44:20;;;;;;;;;0.50;0.00;;;;;;;;5071089;28;10932;-70
2024/03/28 11:46:46;;;;;;;;;2.00;1.00;;;;;;;;5067207;28;8823;-69
2024/03/28 11:49:18;;;;;;;;;2.75;2.75;;;;;;;;5050480;28;10788;-69
2024/03/28 11:51:43;;;;;;;;;8.25;3.00;;;;;;;;5048035;28;9562;-69
2024/03/28 11:54:08;;;;;;;;;8.75;4.50;;;;;;;;5047056;28;10743;-69
2024/03/28 11:56:33;;;;;;;;;2.00;1.75;;;;;;;;5049980;28;8879;-69
2024/03/28 11:58:59;;;;;;;;;4.50;1.75;;;;;;;;5069908;28;8798;-69
2024/03/28 12:01:24;;;;;;;;;7.00;2.25;;;;;;;;5071057;28;8864;-71
2024/03/28 12:03:49;;;;;;;;;1.25;1.00;;;;;;;;5071013;28;8810;-69
2024/03/28 12:06:15;;;;;;;;;2.00;2.00;;;;;;;;5070535;28;9492;-70
2024/03/28 12:08:40;;;;;;;;;4.75;1.00;;;;;;;;5068983;28;8887;-70
2024/03/28 12:11:06;;;;;;;;;3.00;1.50;;;;;;;;5070372;28;8837;-69
2024/03/28 12:13:32;;;;;;;;;2.75;1.00;;;;;;;;5061591;28;8838;-69
2024/03/28 12:16:01;;;;;;;;;1.00;1.00;;;;;;;;5049596;28;10976;-71
2024/03/28 12:18:28;;;;;;;;;2.25;2.00;;;;;;;;5048837;28;10713;-69
2024/03/28 12:21:00;;;;;;;;;3.00;1.00;;;;;;;;5050280;28;10990;-70
2024/03/28 12:23:25;;;;;;;;;2.50;1.50;;;;;;;;5050403;28;10894;-69
2024/03/28 12:25:51;;;;;;;;;5.25;2.75;;;;;;;;5050252;28;11098;-69
2024/03/28 12:28:17;;;;;;;;;5.50;1.00;;;;;;;;5050645;28;8957;-71
2024/03/28 12:30:52;;;;;;;;;3.00;1.75;;;;;;;;5050401;28;9217;-69
2024/03/28 12:33:18;;;;;;;;;3.50;2.25;;;;;;;;5050790;28;10865;-71
2024/03/28 12:35:44;;;;;;;;;4.00;2.00;;;;;;;;5050294;28;10909;-70
2024/03/28 12:38:15;;;;;;;;;7.25;3.00;;;;;;;;5047772;28;8871;-68
2024/03/28 12:40:44;;;;;;;;;3.50;2.25;;;;;;;;5050240;28;8773;-68
2024/03/28 12:43:16;;;;;;;;;4.25;3.00;;;;;;;;5049965;28;10784;-69
2024/03/28 12:45:42;;;;;;;;;2.50;2.50;;;;;;;;5050367;28;10925;-71
2024/03/28 12:48:11;;;;;;;;;2.25;1.00;;;;;;;;5048990;28;11070;-69
2024/03/28 12:50:40;;;;;;;;;3.50;1.50;;;;;;;;5050119;28;8971;-71
2024/03/28 12:53:06;;;;;;;;;3.25;1.25;;;;;;;;5048577;28;10930;-69
2024/03/28 12:55:31;;;;;;;;;6.00;3.00;;;;;;;;5050273;28;10844;-70
2024/03/28 12:57:56;;;;;;;;;6.50;2.75;;;;;;;;5060686;28;8810;-69
2024/03/28 13:00:21;;;;;;;;;4.00;2.00;;;;;;;;5069717;28;8845;-70
2024/03/28 13:02:48;;;;;;;;;4.25;3.00;;;;;;;;5069936;28;8802;-71
2024/03/28 13:05:13;;;;;;;;;4.00;3.00;;;;;;;;5070130;28;8798;-67
2024/03/28 13:07:42;;;;;;;;;0.00;0.00;;;;;;;;5067379;28;10880;-67
2024/03/28 13:10:08;;;;;;;;;7.00;1.75;;;;;;;;5069688;28;8948;-69
2024/03/28 13:12:34;;;;;;;;;3.00;3.00;;;;;;;;5069889;28;10812;-67
2024/03/28 13:14:59;;;;;;;;;2.00;1.25;;;;;;;;5068852;28;8888;-68
2024/03/28 13:17:24;;;;;;;;;2.00;1.75;;;;;;;;5064275;28;8818;-67
2024/03/28 13:19:50;;;;;;;;;4.00;2.50;;;;;;;;5069636;28;8820;-69
2024/03/28 13:22:15;;;;;;;;;1.75;1.50;;;;;;;;5069399;28;9535;-68
2024/03/28 13:24:40;;;;;;;;;5.00;2.50;;;;;;;;5049938;28;8832;-69
2024/03/28 13:27:06;;;;;;;;;3.00;1.00;;;;;;;;5048416;28;8809;-68
2024/03/28 13:29:31;;;;;;;;;6.50;2.75;;;;;;;;5050318;28;8847;-68
2024/03/28 13:31:57;;;;;;;;;3.75;2.00;;;;;;;;5053727;28;8805;-69
2024/03/28 13:34:23;;;;;;;;;5.00;1.00;;;;;;;;5047038;28;8823;-69
2024/03/28 13:36:51;;;;;;;;;2.75;2.25;;;;;;;;5045213;28;8829;-70
2024/03/28 13:39:17;;;;;;;;;6.50;3.75;;;;;;;;5052629;28;8942;-71
2024/03/28 13:41:43;;;;;;;;;7.75;3.75;;;;;;;;5053346;28;11026;-68
2024/03/28 13:44:08;;;;;;;;;2.75;2.75;;;;;;;;5053741;28;10672;-69
2024/03/28 13:46:33;;;;;;;;;5.50;3.00;;;;;;;;5052861;28;8790;-70
2024/03/28 13:48:59;;;;;;;;;2.25;2.00;;;;;;;;5072408;28;8922;-71
2024/03/28 13:51:25;;;;;;;;;12.00;2.00;;;;;;;;5072776;28;9700;-69
2024/03/28 13:53:50;;;;;;;;;6.75;1.75;;;;;;;;5061015;28;8932;-68
2024/03/28 13:56:16;;;;;;;;;7.25;1.75;;;;;;;;5052592;28;8813;-67
2024/03/28 13:58:41;;;;;;;;;3.00;2.00;;;;;;;;5052472;28;8809;-70
2024/03/28 14:01:06;;;;;;;;;7.00;2.75;;;;;;;;5052389;28;8813;-68
2024/03/28 14:03:31;;;;;;;;;3.50;2.25;;;;;;;;5052969;28;8844;-69
2024/03/28 14:06:00;;;;;;;;;1.50;1.00;;;;;;;;5052645;28;8883;-69
2024/03/28 14:08:25;;;;;;;;;6.50;2.75;;;;;;;;5053387;28;8887;-69
2024/03/28 14:10:51;;;;;;;;;4.50;3.00;;;;;;;;5052852;28;10900;-69
2024/03/28 14:13:16;;;;;;;;;4.50;1.00;;;;;;;;5053189;28;8914;-69
2024/03/28 14:15:41;;;;;;;;;2.50;1.50;;;;;;;;5053127;28;8827;-71
2024/03/28 14:18:07;;;;;;;;;10.75;4.00;;;;;;;;5053814;28;8907;-69
2024/03/28 14:20:38;;;;;;;;;3.50;2.25;;;;;;;;5052857;28;8801;-69
2024/03/28 14:23:04;;;;;;;;;4.50;3.00;;;;;;;;5051377;28;8840;-69
2024/03/28 14:25:29;;;;;;;;;3.75;1.25;;;;;;;;5051136;28;10714;-71
2024/03/28 14:27:54;;;;;;;;;7.75;1.75;;;;;;;;5051503;28;8831;-69
2024/03/28 14:30:19;;;;;;;;;3.75;2.00;;;;;;;;5053220;28;8789;-70
2024/03/28 14:32:45;;;;;;;;;0.50;0.50;;;;;;;;5050870;28;8809;-73
2024/03/28 14:35:10;;;;;;;;;3.50;1.50;;;;;;;;5052114;28;8805;-72
2024/03/28 14:37:36;;;;;;;;;1.75;1.25;;;;;;;;5052521;28;8901;-73
2024/03/28 14:40:02;;;;;;;;;2.50;2.50;;;;;;;;5052753;28;8789;-69
2024/03/28 14:42:29;;;;;;;;;3.00;0.50;;;;;;;;5051773;28;8806;-68
2024/03/28 14:44:55;;;;;;;;;5.25;2.00;;;;;;;;5050659;28;10926;-68
2024/03/28 14:47:21;;;;;;;;;3.00;2.00;;;;;;;;5047640;28;11409;-69
2024/03/28 14:49:46;;;;;;;;;2.50;0.00;;;;;;;;5050187;28;10427;-69
2024/03/28 14:52:11;;;;;;;;;3.00;1.00;;;;;;;;5052276;28;9047;-69
2024/03/28 14:54:36;;;;;;;;;7.25;1.25;;;;;;;;5049702;28;8821;-68